sensor_id;sensor_type;location;lat;lon;timestamp;P1;durP1;ratioP1;P2;durP2;ratioP2
68989;SDS011;56046;47.270;11.368;2024-02-23T00:01:41;0.40;;;0.40;;
68989;SDS011;56046;47.270;11.368;2024-02-23T00:04:06;0.33;;;0.20;;
68989;SDS011;56046;47.270;11.368;2024-02-23T00:06:33;0.50;;;0.40;;
68989;SDS011;56046;47.270;11.368;2024-02-23T00:08:59;0.77;;;0.50;;
68989;SDS011;56046;47.270;11.368;2024-02-23T00:11:24;0.40;;;0.40;;
68989;SDS011;56046;47.270;11.368;2024-02-23T00:13:49;0.50;;;0.50;;
68989;SDS011;56046;47.270;11.368;2024-02-23T00:16:14;1.20;;;0.70;;
68989;SDS011;56046;47.270;11.368;2024-02-23T00:18:40;1.20;;;0.60;;
68989;SDS011;56046;47.270;11.368;2024-02-23T00:21:05;1.30;;;0.80;;
68989;SDS011;56046;47.270;11.368;2024-02-23T00:23:30;1.50;;;0.87;;
68989;SDS011;56046;47.270;11.368;2024-02-23T00:25:55;3.13;;;0.67;;
68989;SDS011;56046;47.270;11.368;2024-02-23T00:28:21;1.40;;;0.80;;
68989;SDS011;56046;47.270;11.368;2024-02-23T00:30:46;1.67;;;0.97;;
68989;SDS011;56046;47.270;11.368;2024-02-23T00:33:12;1.00;;;0.60;;
68989;SDS011;56046;47.270;11.368;2024-02-23T00:35:37;1.37;;;0.40;;
68989;SDS011;56046;47.270;11.368;2024-02-23T00:38:02;1.40;;;0.60;;
68989;SDS011;56046;47.270;11.368;2024-02-23T00:40:27;1.97;;;0.90;;
68989;SDS011;56046;47.270;11.368;2024-02-23T00:42:53;0.70;;;0.60;;
68989;SDS011;56046;47.270;11.368;2024-02-23T00:45:18;1.10;;;0.50;;
68989;SDS011;56046;47.270;11.368;2024-02-23T00:47:44;1.43;;;0.60;;
68989;SDS011;56046;47.270;11.368;2024-02-23T00:50:11;0.52;;;0.40;;
68989;SDS011;56046;47.270;11.368;2024-02-23T00:52:37;0.60;;;0.57;;
68989;SDS011;56046;47.270;11.368;2024-02-23T00:55:02;2.30;;;0.80;;
68989;SDS011;56046;47.270;11.368;2024-02-23T00:57:27;1.88;;;0.65;;
68989;SDS011;56046;47.270;11.368;2024-02-23T00:59:55;2.17;;;0.70;;
68989;SDS011;56046;47.270;11.368;2024-02-23T01:02:20;1.67;;;0.70;;
68989;SDS011;56046;47.270;11.368;2024-02-23T01:04:45;2.33;;;0.80;;
68989;SDS011;56046;47.270;11.368;2024-02-23T01:07:11;3.27;;;1.30;;
68989;SDS011;56046;47.270;11.368;2024-02-23T01:09:36;1.63;;;0.93;;
68989;SDS011;56046;47.270;11.368;2024-02-23T01:12:01;1.93;;;0.93;;
68989;SDS011;56046;47.270;11.368;2024-02-23T01:14:26;4.47;;;1.13;;
68989;SDS011;56046;47.270;11.368;2024-02-23T01:16:52;2.03;;;1.00;;
68989;SDS011;56046;47.270;11.368;2024-02-23T01:19:17;1.93;;;0.90;;
68989;SDS011;56046;47.270;11.368;2024-02-23T01:21:43;2.97;;;1.00;;
68989;SDS011;56046;47.270;11.368;2024-02-23T01:24:09;1.17;;;0.87;;
68989;SDS011;56046;47.270;11.368;2024-02-23T01:26:34;1.33;;;0.90;;
68989;SDS011;56046;47.270;11.368;2024-02-23T01:28:59;1.67;;;0.97;;
68989;SDS011;56046;47.270;11.368;2024-02-23T01:31:24;2.90;;;1.00;;
68989;SDS011;56046;47.270;11.368;2024-02-23T01:33:50;1.20;;;0.80;;
68989;SDS011;56046;47.270;11.368;2024-02-23T01:36:16;2.65;;;0.70;;
68989;SDS011;56046;47.270;11.368;2024-02-23T01:38:42;1.52;;;0.88;;
68989;SDS011;56046;47.270;11.368;2024-02-23T01:41:08;1.47;;;0.70;;
68989;SDS011;56046;47.270;11.368;2024-02-23T01:43:33;1.73;;;0.90;;
68989;SDS011;56046;47.270;11.368;2024-02-23T01:45:59;1.23;;;0.90;;
68989;SDS011;56046;47.270;11.368;2024-02-23T01:48:24;1.63;;;0.90;;
68989;SDS011;56046;47.270;11.368;2024-02-23T01:50:50;2.07;;;1.10;;
68989;SDS011;56046;47.270;11.368;2024-02-23T01:53:15;1.10;;;0.73;;
68989;SDS011;56046;47.270;11.368;2024-02-23T01:55:41;1.67;;;0.77;;
68989;SDS011;56046;47.270;11.368;2024-02-23T01:58:07;1.20;;;0.75;;
68989;SDS011;56046;47.270;11.368;2024-02-23T02:00:32;1.20;;;0.70;;
68989;SDS011;56046;47.270;11.368;2024-02-23T02:02:59;1.30;;;0.60;;
68989;SDS011;56046;47.270;11.368;2024-02-23T02:05:24;1.00;;;0.60;;
68989;SDS011;56046;47.270;11.368;2024-02-23T02:07:50;1.10;;;0.50;;
68989;SDS011;56046;47.270;11.368;2024-02-23T02:10:18;0.70;;;0.60;;
68989;SDS011;56046;47.270;11.368;2024-02-23T02:12:44;1.35;;;0.60;;
68989;SDS011;56046;47.270;11.368;2024-02-23T02:15:10;0.77;;;0.43;;
68989;SDS011;56046;47.270;11.368;2024-02-23T02:17:35;0.57;;;0.50;;
68989;SDS011;56046;47.270;11.368;2024-02-23T02:20:01;1.58;;;0.40;;
68989;SDS011;56046;47.270;11.368;2024-02-23T02:22:29;0.60;;;0.30;;
68989;SDS011;56046;47.270;11.368;2024-02-23T02:24:54;0.50;;;0.50;;
68989;SDS011;56046;47.270;11.368;2024-02-23T02:27:20;0.50;;;0.50;;
68989;SDS011;56046;47.270;11.368;2024-02-23T02:29:45;0.50;;;0.33;;
68989;SDS011;56046;47.270;11.368;2024-02-23T02:32:10;0.80;;;0.50;;
68989;SDS011;56046;47.270;11.368;2024-02-23T02:34:35;0.20;;;0.20;;
68989;SDS011;56046;47.270;11.368;2024-02-23T02:37:01;0.30;;;0.20;;
68989;SDS011;56046;47.270;11.368;2024-02-23T02:39:26;1.70;;;0.50;;
68989;SDS011;56046;47.270;11.368;2024-02-23T02:41:52;0.40;;;0.40;;
68989;SDS011;56046;47.270;11.368;2024-02-23T02:44:17;0.40;;;0.37;;
68989;SDS011;56046;47.270;11.368;2024-02-23T02:46:42;0.50;;;0.40;;
68989;SDS011;56046;47.270;11.368;2024-02-23T02:49:07;0.30;;;0.30;;
68989;SDS011;56046;47.270;11.368;2024-02-23T02:51:33;0.30;;;0.30;;
68989;SDS011;56046;47.270;11.368;2024-02-23T02:53:58;0.40;;;0.40;;
68989;SDS011;56046;47.270;11.368;2024-02-23T02:56:23;0.45;;;0.40;;
68989;SDS011;56046;47.270;11.368;2024-02-23T02:58:48;0.60;;;0.50;;
68989;SDS011;56046;47.270;11.368;2024-02-23T03:01:14;0.40;;;0.40;;
68989;SDS011;56046;47.270;11.368;2024-02-23T03:03:39;0.30;;;0.30;;
68989;SDS011;56046;47.270;11.368;2024-02-23T03:06:04;0.50;;;0.40;;
68989;SDS011;56046;47.270;11.368;2024-02-23T03:08:30;0.40;;;0.40;;
68989;SDS011;56046;47.270;11.368;2024-02-23T03:10:56;0.40;;;0.30;;
68989;SDS011;56046;47.270;11.368;2024-02-23T03:13:22;0.30;;;0.30;;
68989;SDS011;56046;47.270;11.368;2024-02-23T03:15:47;0.40;;;0.40;;
68989;SDS011;56046;47.270;11.368;2024-02-23T03:18:12;0.37;;;0.27;;
68989;SDS011;56046;47.270;11.368;2024-02-23T03:20:39;0.60;;;0.40;;
68989;SDS011;56046;47.270;11.368;2024-02-23T03:23:05;0.85;;;0.40;;
68989;SDS011;56046;47.270;11.368;2024-02-23T03:25:30;0.82;;;0.50;;
68989;SDS011;56046;47.270;11.368;2024-02-23T03:27:55;0.40;;;0.38;;
68989;SDS011;56046;47.270;11.368;2024-02-23T03:30:20;0.65;;;0.52;;
68989;SDS011;56046;47.270;11.368;2024-02-23T03:32:46;0.95;;;0.40;;
68989;SDS011;56046;47.270;11.368;2024-02-23T03:35:12;0.70;;;0.40;;
68989;SDS011;56046;47.270;11.368;2024-02-23T03:37:37;0.35;;;0.30;;
68989;SDS011;56046;47.270;11.368;2024-02-23T03:40:03;0.40;;;0.30;;
68989;SDS011;56046;47.270;11.368;2024-02-23T03:42:29;0.50;;;0.40;;
68989;SDS011;56046;47.270;11.368;2024-02-23T03:44:55;0.30;;;0.30;;
68989;SDS011;56046;47.270;11.368;2024-02-23T03:47:20;0.40;;;0.30;;
68989;SDS011;56046;47.270;11.368;2024-02-23T03:49:45;0.30;;;0.30;;
68989;SDS011;56046;47.270;11.368;2024-02-23T03:52:11;0.77;;;0.30;;
68989;SDS011;56046;47.270;11.368;2024-02-23T03:54:37;0.20;;;0.20;;
68989;SDS011;56046;47.270;11.368;2024-02-23T03:57:02;0.20;;;0.20;;
68989;SDS011;56046;47.270;11.368;2024-02-23T03:59:28;0.40;;;0.40;;
68989;SDS011;56046;47.270;11.368;2024-02-23T04:01:53;0.47;;;0.40;;
68989;SDS011;56046;47.270;11.368;2024-02-23T04:04:19;0.30;;;0.30;;
68989;SDS011;56046;47.270;11.368;2024-02-23T04:06:44;0.53;;;0.47;;
68989;SDS011;56046;47.270;11.368;2024-02-23T04:09:09;0.60;;;0.33;;
68989;SDS011;56046;47.270;11.368;2024-02-23T04:11:35;0.60;;;0.20;;
68989;SDS011;56046;47.270;11.368;2024-02-23T04:14:00;0.40;;;0.40;;
68989;SDS011;56046;47.270;11.368;2024-02-23T04:16:26;0.50;;;0.40;;
68989;SDS011;56046;47.270;11.368;2024-02-23T04:18:51;0.73;;;0.20;;
68989;SDS011;56046;47.270;11.368;2024-02-23T04:21:16;0.30;;;0.30;;
68989;SDS011;56046;47.270;11.368;2024-02-23T04:23:42;0.60;;;0.40;;
68989;SDS011;56046;47.270;11.368;2024-02-23T04:26:08;0.50;;;0.30;;
68989;SDS011;56046;47.270;11.368;2024-02-23T04:28:37;0.40;;;0.30;;
68989;SDS011;56046;47.270;11.368;2024-02-23T04:31:02;0.40;;;0.38;;
68989;SDS011;56046;47.270;11.368;2024-02-23T04:33:28;0.40;;;0.40;;
68989;SDS011;56046;47.270;11.368;2024-02-23T04:35:53;0.80;;;0.40;;
68989;SDS011;56046;47.270;11.368;2024-02-23T04:38:18;0.37;;;0.30;;
68989;SDS011;56046;47.270;11.368;2024-02-23T04:40:43;1.73;;;0.40;;
68989;SDS011;56046;47.270;11.368;2024-02-23T04:43:09;1.42;;;0.40;;
68989;SDS011;56046;47.270;11.368;2024-02-23T04:45:34;2.65;;;0.32;;
68989;SDS011;56046;47.270;11.368;2024-02-23T04:47:59;0.77;;;0.50;;
68989;SDS011;56046;47.270;11.368;2024-02-23T04:50:24;0.40;;;0.30;;
68989;SDS011;56046;47.270;11.368;2024-02-23T04:52:50;1.20;;;0.38;;
68989;SDS011;56046;47.270;11.368;2024-02-23T04:55:15;0.88;;;0.40;;
68989;SDS011;56046;47.270;11.368;2024-02-23T04:57:40;0.57;;;0.40;;
68989;SDS011;56046;47.270;11.368;2024-02-23T05:00:06;1.30;;;0.40;;
68989;SDS011;56046;47.270;11.368;2024-02-23T05:02:32;1.20;;;0.40;;
68989;SDS011;56046;47.270;11.368;2024-02-23T05:05:00;0.73;;;0.40;;
68989;SDS011;56046;47.270;11.368;2024-02-23T05:07:25;0.75;;;0.38;;
68989;SDS011;56046;47.270;11.368;2024-02-23T05:09:51;0.60;;;0.40;;
68989;SDS011;56046;47.270;11.368;2024-02-23T05:12:16;0.97;;;0.50;;
68989;SDS011;56046;47.270;11.368;2024-02-23T05:14:41;0.90;;;0.50;;
68989;SDS011;56046;47.270;11.368;2024-02-23T05:17:06;2.50;;;0.40;;
68989;SDS011;56046;47.270;11.368;2024-02-23T05:19:32;0.30;;;0.20;;
68989;SDS011;56046;47.270;11.368;2024-02-23T05:21:57;0.90;;;0.50;;
68989;SDS011;56046;47.270;11.368;2024-02-23T05:24:22;1.87;;;0.50;;
68989;SDS011;56046;47.270;11.368;2024-02-23T05:26:47;0.93;;;0.50;;
68989;SDS011;56046;47.270;11.368;2024-02-23T05:29:13;0.30;;;0.30;;
68989;SDS011;56046;47.270;11.368;2024-02-23T05:31:43;0.93;;;0.50;;
68989;SDS011;56046;47.270;11.368;2024-02-23T05:34:09;0.85;;;0.40;;
68989;SDS011;56046;47.270;11.368;2024-02-23T05:36:34;0.90;;;0.50;;
68989;SDS011;56046;47.270;11.368;2024-02-23T05:38:59;1.50;;;0.60;;
68989;SDS011;56046;47.270;11.368;2024-02-23T05:41:25;1.20;;;0.60;;
68989;SDS011;56046;47.270;11.368;2024-02-23T05:43:50;0.53;;;0.50;;
68989;SDS011;56046;47.270;11.368;2024-02-23T05:46:15;1.80;;;0.40;;
68989;SDS011;56046;47.270;11.368;2024-02-23T05:48:40;1.43;;;0.63;;
68989;SDS011;56046;47.270;11.368;2024-02-23T05:51:06;0.77;;;0.60;;
68989;SDS011;56046;47.270;11.368;2024-02-23T05:53:31;1.17;;;0.60;;
68989;SDS011;56046;47.270;11.368;2024-02-23T05:55:58;11.95;;;4.72;;
68989;SDS011;56046;47.270;11.368;2024-02-23T05:58:23;3.33;;;1.30;;
68989;SDS011;56046;47.270;11.368;2024-02-23T06:00:49;2.30;;;0.90;;
68989;SDS011;56046;47.270;11.368;2024-02-23T06:03:14;0.73;;;0.40;;
68989;SDS011;56046;47.270;11.368;2024-02-23T06:05:40;1.80;;;0.40;;
68989;SDS011;56046;47.270;11.368;2024-02-23T06:08:05;0.80;;;0.40;;
68989;SDS011;56046;47.270;11.368;2024-02-23T06:10:30;0.50;;;0.40;;
68989;SDS011;56046;47.270;11.368;2024-02-23T06:12:56;1.17;;;0.30;;
68989;SDS011;56046;47.270;11.368;2024-02-23T06:15:21;0.40;;;0.30;;
68989;SDS011;56046;47.270;11.368;2024-02-23T06:17:46;2.80;;;0.90;;
68989;SDS011;56046;47.270;11.368;2024-02-23T06:20:12;1.50;;;0.60;;
68989;SDS011;56046;47.270;11.368;2024-02-23T06:22:37;4.43;;;1.43;;
68989;SDS011;56046;47.270;11.368;2024-02-23T06:25:03;3.07;;;1.00;;
68989;SDS011;56046;47.270;11.368;2024-02-23T06:27:28;2.33;;;1.00;;
68989;SDS011;56046;47.270;11.368;2024-02-23T06:29:53;2.40;;;0.60;;
68989;SDS011;56046;47.270;11.368;2024-02-23T06:32:18;1.67;;;0.70;;
68989;SDS011;56046;47.270;11.368;2024-02-23T06:34:44;1.20;;;1.07;;
68989;SDS011;56046;47.270;11.368;2024-02-23T06:37:09;1.80;;;0.63;;
68989;SDS011;56046;47.270;11.368;2024-02-23T06:39:34;1.20;;;0.50;;
68989;SDS011;56046;47.270;11.368;2024-02-23T06:42:00;5.55;;;1.83;;
68989;SDS011;56046;47.270;11.368;2024-02-23T06:44:28;1.30;;;0.50;;
68989;SDS011;56046;47.270;11.368;2024-02-23T06:46:54;8.17;;;3.57;;
68989;SDS011;56046;47.270;11.368;2024-02-23T06:49:19;1.77;;;0.80;;
68989;SDS011;56046;47.270;11.368;2024-02-23T06:51:44;0.63;;;0.40;;
68989;SDS011;56046;47.270;11.368;2024-02-23T06:54:10;2.83;;;0.80;;
68989;SDS011;56046;47.270;11.368;2024-02-23T06:56:35;2.10;;;0.80;;
68989;SDS011;56046;47.270;11.368;2024-02-23T06:59:01;2.97;;;1.38;;
68989;SDS011;56046;47.270;11.368;2024-02-23T07:01:26;0.70;;;0.40;;
68989;SDS011;56046;47.270;11.368;2024-02-23T07:03:52;1.02;;;0.50;;
68989;SDS011;56046;47.270;11.368;2024-02-23T07:06:17;1.00;;;0.53;;
68989;SDS011;56046;47.270;11.368;2024-02-23T07:08:43;5.67;;;2.40;;
68989;SDS011;56046;47.270;11.368;2024-02-23T07:11:09;2.40;;;0.73;;
68989;SDS011;56046;47.270;11.368;2024-02-23T07:13:34;1.00;;;0.70;;
68989;SDS011;56046;47.270;11.368;2024-02-23T07:16:00;1.53;;;0.80;;
68989;SDS011;56046;47.270;11.368;2024-02-23T07:18:25;1.90;;;1.20;;
68989;SDS011;56046;47.270;11.368;2024-02-23T07:20:50;2.53;;;1.73;;
68989;SDS011;56046;47.270;11.368;2024-02-23T07:23:15;1.00;;;0.80;;
68989;SDS011;56046;47.270;11.368;2024-02-23T07:25:42;1.83;;;0.90;;
68989;SDS011;56046;47.270;11.368;2024-02-23T07:28:07;1.83;;;0.50;;
68989;SDS011;56046;47.270;11.368;2024-02-23T07:30:32;2.07;;;0.80;;
68989;SDS011;56046;47.270;11.368;2024-02-23T07:33:00;1.70;;;0.50;;
68989;SDS011;56046;47.270;11.368;2024-02-23T07:35:25;0.63;;;0.40;;
68989;SDS011;56046;47.270;11.368;2024-02-23T07:37:50;0.53;;;0.40;;
68989;SDS011;56046;47.270;11.368;2024-02-23T07:40:15;0.40;;;0.20;;
68989;SDS011;56046;47.270;11.368;2024-02-23T07:42:40;0.63;;;0.40;;
68989;SDS011;56046;47.270;11.368;2024-02-23T07:45:06;1.03;;;0.50;;
68989;SDS011;56046;47.270;11.368;2024-02-23T07:47:31;1.73;;;0.60;;
68989;SDS011;56046;47.270;11.368;2024-02-23T07:49:57;2.58;;;0.93;;
68989;SDS011;56046;47.270;11.368;2024-02-23T07:52:22;2.27;;;0.60;;
68989;SDS011;56046;47.270;11.368;2024-02-23T07:54:49;2.33;;;0.80;;
68989;SDS011;56046;47.270;11.368;2024-02-23T07:57:14;2.10;;;0.87;;
68989;SDS011;56046;47.270;11.368;2024-02-23T07:59:41;1.80;;;0.68;;
68989;SDS011;56046;47.270;11.368;2024-02-23T08:02:07;2.00;;;0.93;;
68989;SDS011;56046;47.270;11.368;2024-02-23T08:04:32;4.40;;;0.77;;
68989;SDS011;56046;47.270;11.368;2024-02-23T08:06:57;1.60;;;0.80;;
68989;SDS011;56046;47.270;11.368;2024-02-23T08:09:23;1.37;;;0.80;;
68989;SDS011;56046;47.270;11.368;2024-02-23T08:11:49;2.00;;;0.80;;
68989;SDS011;56046;47.270;11.368;2024-02-23T08:14:14;2.30;;;1.30;;
68989;SDS011;56046;47.270;11.368;2024-02-23T08:16:40;2.67;;;1.27;;
68989;SDS011;56046;47.270;11.368;2024-02-23T08:19:05;2.67;;;1.40;;
68989;SDS011;56046;47.270;11.368;2024-02-23T08:21:30;3.27;;;1.63;;
68989;SDS011;56046;47.270;11.368;2024-02-23T08:23:56;2.93;;;1.70;;
68989;SDS011;56046;47.270;11.368;2024-02-23T08:26:21;3.22;;;1.60;;
68989;SDS011;56046;47.270;11.368;2024-02-23T08:28:47;4.55;;;1.90;;
68989;SDS011;56046;47.270;11.368;2024-02-23T08:31:12;7.75;;;3.03;;
68989;SDS011;56046;47.270;11.368;2024-02-23T08:33:37;6.50;;;3.03;;
68989;SDS011;56046;47.270;11.368;2024-02-23T08:36:03;7.78;;;3.00;;
68989;SDS011;56046;47.270;11.368;2024-02-23T08:38:30;6.50;;;3.00;;
68989;SDS011;56046;47.270;11.368;2024-02-23T08:40:55;7.07;;;3.00;;
68989;SDS011;56046;47.270;11.368;2024-02-23T08:43:21;5.47;;;2.97;;
68989;SDS011;56046;47.270;11.368;2024-02-23T08:45:46;6.07;;;2.33;;
68989;SDS011;56046;47.270;11.368;2024-02-23T08:48:12;3.93;;;1.97;;
68989;SDS011;56046;47.270;11.368;2024-02-23T08:50:40;3.40;;;1.60;;
68989;SDS011;56046;47.270;11.368;2024-02-23T08:53:05;3.17;;;1.63;;
68989;SDS011;56046;47.270;11.368;2024-02-23T08:55:30;2.80;;;1.40;;
68989;SDS011;56046;47.270;11.368;2024-02-23T08:57:56;2.90;;;1.20;;
68989;SDS011;56046;47.270;11.368;2024-02-23T09:00:22;3.03;;;1.57;;
68989;SDS011;56046;47.270;11.368;2024-02-23T09:02:49;3.55;;;1.50;;
68989;SDS011;56046;47.270;11.368;2024-02-23T09:05:15;4.85;;;1.80;;
68989;SDS011;56046;47.270;11.368;2024-02-23T09:07:40;3.60;;;1.67;;
68989;SDS011;56046;47.270;11.368;2024-02-23T09:10:05;4.60;;;1.07;;
68989;SDS011;56046;47.270;11.368;2024-02-23T09:12:31;5.23;;;1.70;;
68989;SDS011;56046;47.270;11.368;2024-02-23T09:14:56;2.10;;;1.00;;
68989;SDS011;56046;47.270;11.368;2024-02-23T09:17:21;2.67;;;1.10;;
68989;SDS011;56046;47.270;11.368;2024-02-23T09:19:47;1.87;;;0.87;;
68989;SDS011;56046;47.270;11.368;2024-02-23T09:22:12;5.20;;;1.10;;
68989;SDS011;56046;47.270;11.368;2024-02-23T09:24:40;2.00;;;0.93;;
68989;SDS011;56046;47.270;11.368;2024-02-23T09:27:06;2.42;;;0.60;;
68989;SDS011;56046;47.270;11.368;2024-02-23T09:29:32;1.40;;;0.50;;
68989;SDS011;56046;47.270;11.368;2024-02-23T09:31:57;1.43;;;1.00;;
68989;SDS011;56046;47.270;11.368;2024-02-23T09:34:23;1.65;;;1.00;;
68989;SDS011;56046;47.270;11.368;2024-02-23T09:36:48;2.47;;;0.80;;
68989;SDS011;56046;47.270;11.368;2024-02-23T09:39:14;2.83;;;1.13;;
68989;SDS011;56046;47.270;11.368;2024-02-23T09:41:39;1.67;;;0.73;;
68989;SDS011;56046;47.270;11.368;2024-02-23T09:44:05;1.73;;;0.60;;
68989;SDS011;56046;47.270;11.368;2024-02-23T09:46:33;0.90;;;0.70;;
68989;SDS011;56046;47.270;11.368;2024-02-23T09:48:58;0.70;;;0.40;;
68989;SDS011;56046;47.270;11.368;2024-02-23T09:51:24;0.57;;;0.40;;
68989;SDS011;56046;47.270;11.368;2024-02-23T09:53:50;2.47;;;0.50;;
68989;SDS011;56046;47.270;11.368;2024-02-23T09:56:19;0.47;;;0.40;;
68989;SDS011;56046;47.270;11.368;2024-02-23T09:58:46;0.50;;;0.40;;
68989;SDS011;56046;47.270;11.368;2024-02-23T10:01:12;0.82;;;0.50;;
68989;SDS011;56046;47.270;11.368;2024-02-23T10:03:38;0.70;;;0.40;;
68989;SDS011;56046;47.270;11.368;2024-02-23T10:06:04;1.48;;;0.60;;
68989;SDS011;56046;47.270;11.368;2024-02-23T10:08:30;2.45;;;0.90;;
68989;SDS011;56046;47.270;11.368;2024-02-23T10:10:55;1.67;;;0.60;;
68989;SDS011;56046;47.270;11.368;2024-02-23T10:13:21;3.77;;;1.60;;
68989;SDS011;56046;47.270;11.368;2024-02-23T10:15:47;1.83;;;0.80;;
68989;SDS011;56046;47.270;11.368;2024-02-23T10:18:12;1.30;;;0.77;;
68989;SDS011;56046;47.270;11.368;2024-02-23T10:20:37;3.03;;;0.80;;
68989;SDS011;56046;47.270;11.368;2024-02-23T10:23:04;2.80;;;1.20;;
68989;SDS011;56046;47.270;11.368;2024-02-23T10:25:29;2.15;;;1.00;;
68989;SDS011;56046;47.270;11.368;2024-02-23T10:27:54;3.20;;;1.17;;
68989;SDS011;56046;47.270;11.368;2024-02-23T10:30:20;3.00;;;1.53;;
68989;SDS011;56046;47.270;11.368;2024-02-23T10:32:46;4.07;;;1.75;;
68989;SDS011;56046;47.270;11.368;2024-02-23T10:35:14;2.72;;;1.40;;
68989;SDS011;56046;47.270;11.368;2024-02-23T10:37:44;4.23;;;1.80;;
68989;SDS011;56046;47.270;11.368;2024-02-23T10:40:13;2.42;;;1.60;;
68989;SDS011;56046;47.270;11.368;2024-02-23T10:42:39;3.88;;;1.75;;
68989;SDS011;56046;47.270;11.368;2024-02-23T10:45:06;3.43;;;2.03;;
68989;SDS011;56046;47.270;11.368;2024-02-23T10:47:33;3.22;;;1.70;;
68989;SDS011;56046;47.270;11.368;2024-02-23T10:50:00;4.68;;;1.90;;
68989;SDS011;56046;47.270;11.368;2024-02-23T10:52:25;4.95;;;2.72;;
68989;SDS011;56046;47.270;11.368;2024-02-23T10:54:51;6.00;;;3.10;;
68989;SDS011;56046;47.270;11.368;2024-02-23T10:57:17;9.50;;;3.88;;
68989;SDS011;56046;47.270;11.368;2024-02-23T10:59:44;7.67;;;3.80;;
68989;SDS011;56046;47.270;11.368;2024-02-23T11:02:10;8.25;;;3.10;;
68989;SDS011;56046;47.270;11.368;2024-02-23T11:04:35;6.23;;;2.70;;
68989;SDS011;56046;47.270;11.368;2024-02-23T11:07:01;5.37;;;2.50;;
68989;SDS011;56046;47.270;11.368;2024-02-23T11:09:31;3.60;;;1.50;;
68989;SDS011;56046;47.270;11.368;2024-02-23T11:11:57;3.83;;;1.60;;
68989;SDS011;56046;47.270;11.368;2024-02-23T11:14:29;3.25;;;1.42;;
68989;SDS011;56046;47.270;11.368;2024-02-23T11:16:55;2.23;;;0.90;;
68989;SDS011;56046;47.270;11.368;2024-02-23T11:19:20;4.13;;;1.10;;
68989;SDS011;56046;47.270;11.368;2024-02-23T11:21:51;3.80;;;1.70;;
68989;SDS011;56046;47.270;11.368;2024-02-23T11:24:17;3.17;;;1.65;;
68989;SDS011;56046;47.270;11.368;2024-02-23T11:26:42;6.07;;;1.83;;
68989;SDS011;56046;47.270;11.368;2024-02-23T11:29:11;3.63;;;1.23;;
68989;SDS011;56046;47.270;11.368;2024-02-23T11:31:37;1.87;;;0.87;;
68989;SDS011;56046;47.270;11.368;2024-02-23T11:34:09;2.53;;;1.10;;
68989;SDS011;56046;47.270;11.368;2024-02-23T11:36:34;4.85;;;2.00;;
68989;SDS011;56046;47.270;11.368;2024-02-23T11:39:00;4.90;;;2.23;;
68989;SDS011;56046;47.270;11.368;2024-02-23T11:41:26;6.18;;;2.47;;
68989;SDS011;56046;47.270;11.368;2024-02-23T11:43:51;5.13;;;1.67;;
68989;SDS011;56046;47.270;11.368;2024-02-23T11:46:17;2.57;;;1.00;;
68989;SDS011;56046;47.270;11.368;2024-02-23T11:48:43;1.13;;;0.70;;
68989;SDS011;56046;47.270;11.368;2024-02-23T11:51:08;0.53;;;0.40;;
68989;SDS011;56046;47.270;11.368;2024-02-23T11:53:34;0.73;;;0.50;;
68989;SDS011;56046;47.270;11.368;2024-02-23T11:55:59;2.87;;;0.60;;
68989;SDS011;56046;47.270;11.368;2024-02-23T11:58:24;1.10;;;0.63;;
68989;SDS011;56046;47.270;11.368;2024-02-23T12:00:50;1.30;;;0.60;;
68989;SDS011;56046;47.270;11.368;2024-02-23T12:03:16;1.50;;;0.70;;
68989;SDS011;56046;47.270;11.368;2024-02-23T12:05:42;1.90;;;1.10;;
68989;SDS011;56046;47.270;11.368;2024-02-23T12:08:08;2.08;;;0.90;;
68989;SDS011;56046;47.270;11.368;2024-02-23T12:10:33;3.20;;;1.20;;
68989;SDS011;56046;47.270;11.368;2024-02-23T12:12:58;3.07;;;1.40;;
68989;SDS011;56046;47.270;11.368;2024-02-23T12:15:24;5.47;;;2.53;;
68989;SDS011;56046;47.270;11.368;2024-02-23T12:17:49;6.28;;;3.45;;
68989;SDS011;56046;47.270;11.368;2024-02-23T12:20:15;5.22;;;2.60;;
68989;SDS011;56046;47.270;11.368;2024-02-23T12:22:41;5.43;;;2.40;;
68989;SDS011;56046;47.270;11.368;2024-02-23T12:25:06;5.90;;;2.60;;
68989;SDS011;56046;47.270;11.368;2024-02-23T12:27:32;4.07;;;1.80;;
68989;SDS011;56046;47.270;11.368;2024-02-23T12:29:57;3.73;;;1.70;;
68989;SDS011;56046;47.270;11.368;2024-02-23T12:32:22;4.40;;;2.20;;
68989;SDS011;56046;47.270;11.368;2024-02-23T12:34:48;4.50;;;1.97;;
68989;SDS011;56046;47.270;11.368;2024-02-23T12:37:16;5.33;;;2.27;;
68989;SDS011;56046;47.270;11.368;2024-02-23T12:39:42;4.40;;;2.15;;
68989;SDS011;56046;47.270;11.368;2024-02-23T12:42:07;3.42;;;1.60;;
68989;SDS011;56046;47.270;11.368;2024-02-23T12:44:33;3.03;;;1.42;;
68989;SDS011;56046;47.270;11.368;2024-02-23T12:46:58;3.10;;;1.10;;
68989;SDS011;56046;47.270;11.368;2024-02-23T12:49:23;6.43;;;2.30;;
68989;SDS011;56046;47.270;11.368;2024-02-23T12:51:48;3.83;;;1.40;;
68989;SDS011;56046;47.270;11.368;2024-02-23T12:54:14;3.27;;;1.30;;
68989;SDS011;56046;47.270;11.368;2024-02-23T12:56:39;4.37;;;1.67;;
68989;SDS011;56046;47.270;11.368;2024-02-23T12:59:05;3.73;;;1.67;;
68989;SDS011;56046;47.270;11.368;2024-02-23T13:01:30;5.33;;;1.93;;
68989;SDS011;56046;47.270;11.368;2024-02-23T13:03:59;4.43;;;1.95;;
68989;SDS011;56046;47.270;11.368;2024-02-23T13:06:24;4.37;;;2.10;;
68989;SDS011;56046;47.270;11.368;2024-02-23T13:08:50;3.83;;;2.08;;
68989;SDS011;56046;47.270;11.368;2024-02-23T13:11:15;5.13;;;2.00;;
68989;SDS011;56046;47.270;11.368;2024-02-23T13:13:41;4.20;;;1.90;;
68989;SDS011;56046;47.270;11.368;2024-02-23T13:16:06;4.20;;;2.10;;
68989;SDS011;56046;47.270;11.368;2024-02-23T13:18:31;5.80;;;2.90;;
68989;SDS011;56046;47.270;11.368;2024-02-23T13:20:56;9.17;;;4.30;;
68989;SDS011;56046;47.270;11.368;2024-02-23T13:23:22;8.30;;;4.13;;
68989;SDS011;56046;47.270;11.368;2024-02-23T13:25:47;6.73;;;3.80;;
68989;SDS011;56046;47.270;11.368;2024-02-23T13:28:12;7.53;;;4.20;;
68989;SDS011;56046;47.270;11.368;2024-02-23T13:30:37;8.63;;;4.30;;
68989;SDS011;56046;47.270;11.368;2024-02-23T13:33:03;8.40;;;4.28;;
68989;SDS011;56046;47.270;11.368;2024-02-23T13:35:29;7.85;;;4.20;;
68989;SDS011;56046;47.270;11.368;2024-02-23T13:37:55;7.40;;;4.00;;
68989;SDS011;56046;47.270;11.368;2024-02-23T13:40:22;9.15;;;4.35;;
68989;SDS011;56046;47.270;11.368;2024-02-23T13:42:47;5.83;;;3.30;;
68989;SDS011;56046;47.270;11.368;2024-02-23T13:45:17;5.63;;;3.00;;
68989;SDS011;56046;47.270;11.368;2024-02-23T13:47:44;5.68;;;2.70;;
68989;SDS011;56046;47.270;11.368;2024-02-23T13:50:20;6.65;;;3.17;;
68989;SDS011;56046;47.270;11.368;2024-02-23T13:52:45;11.23;;;3.90;;
68989;SDS011;56046;47.270;11.368;2024-02-23T13:55:10;8.10;;;3.50;;
68989;SDS011;56046;47.270;11.368;2024-02-23T13:57:35;7.63;;;4.33;;
68989;SDS011;56046;47.270;11.368;2024-02-23T14:00:01;6.90;;;3.20;;
68989;SDS011;56046;47.270;11.368;2024-02-23T14:02:26;6.13;;;3.70;;
68989;SDS011;56046;47.270;11.368;2024-02-23T14:04:52;7.37;;;3.50;;
68989;SDS011;56046;47.270;11.368;2024-02-23T14:07:17;7.07;;;3.40;;
68989;SDS011;56046;47.270;11.368;2024-02-23T14:09:43;8.05;;;3.45;;
68989;SDS011;56046;47.270;11.368;2024-02-23T14:12:08;6.13;;;3.40;;
68989;SDS011;56046;47.270;11.368;2024-02-23T14:14:33;6.77;;;3.50;;
68989;SDS011;56046;47.270;11.368;2024-02-23T14:16:58;7.37;;;3.80;;
68989;SDS011;56046;47.270;11.368;2024-02-23T14:19:24;8.80;;;4.40;;
68989;SDS011;56046;47.270;11.368;2024-02-23T14:21:50;9.18;;;3.70;;
68989;SDS011;56046;47.270;11.368;2024-02-23T14:24:15;7.90;;;3.57;;